Date,TemperatureHighF,TemperatureAvgF,TemperatureLowF,DewpointHighF,DewpointAvgF,DewpointLowF,HumidityHigh,HumidityAvg,HumidityLow,PressureMaxIn,PressureMinIn,WindSpeedMaxMPH,WindSpeedAvgMPH,GustSpeedMaxMPH,PrecipitationSumIn
2013-3-1,42.0,34.4,29.0,32.0,28.9,26.0,99,81,60,0.00,40.00,16,8,30,0.06
2013-3-2,48.0,37.8,31.0,29.0,23.1,16.0,87,59,29,0.00,40.00,13,7,23,0.05
2013-3-3,35.0,24.7,15.0,30.0,17.4,4.0,99,76,36,0.00,40.00,24,12,39,0.02
2013-3-4,29.0,18.6,12.0,13.0,6.7,3.0,90,63,32,0.00,40.00,12,7,19,0.02
2013-3-5,43.0,27.9,16.0,10.0,6.6,2.0,58,41,26,0.00,40.00,6,4,12,0.01
2013-3-6,42.0,30.4,26.0,30.0,20.5,9.0,96,69,40,0.00,40.00,28,9,47,0.00
2013-3-7,37.0,27.9,21.0,23.0,13.8,7.0,95,59,31,0.00,40.00,14,8,21,0.00
2013-3-8,41.0,26.8,17.0,14.0,11.4,4.0,76,55,24,0.00,40.00,16,5,23,0.00
2013-3-9,38.0,26.8,19.0,16.0,13.4,10.0,74,59,35,0.00,40.00,13,7,23,0.00
2013-3-10,41.0,29.6,19.0,24.0,13.3,6.0,89,56,24,0.00,40.00,16,8,31,0.00
2013-3-11,36.0,29.7,26.0,26.0,16.6,5.0,97,63,28,0.00,40.00,21,11,39,0.05
2013-3-12,45.0,32.7,22.0,28.0,19.5,10.0,81,58,45,0.00,40.00,16,7,27,0.02
2013-3-13,50.0,41.5,35.0,27.0,23.7,20.0,64,50,33,0.00,40.00,14,9,26,0.00
2013-3-14,53.0,45.1,38.0,26.0,21.2,19.0,54,39,27,0.00,40.00,14,7,23,0.00
2013-3-15,44.0,40.0,35.0,27.0,21.3,17.0,65,48,35,0.00,40.00,14,10,26,0.00
2013-3-16,39.0,34.1,30.0,25.0,20.0,15.0,80,57,39,0.00,40.00,16,9,27,0.00
2013-3-17,30.0,20.3,15.0,26.0,15.6,10.0,96,82,53,0.00,40.00,21,12,40,0.02
2013-3-18,26.0,18.4,13.0,17.0,11.4,7.0,92,75,47,0.00,40.00,15,9,31,0.01
2013-3-19,43.0,26.3,16.0,17.0,8.0,-5.0,91,53,18,0.00,40.00,14,8,25,0.03
2013-3-20,43.0,33.1,25.0,30.0,19.9,-2.0,96,63,24,0.00,40.00,22,9,40,0.01
2013-3-21,25.0,19.1,15.0,24.0,15.5,12.0,95,86,66,0.00,40.00,13,9,26,0.05
2013-3-22,26.0,16.0,11.0,14.0,10.1,7.0,89,78,50,0.00,40.00,11,5,27,0.04
2013-3-23,27.0,15.8,9.0,11.0,6.1,0.0,88,68,34,0.00,40.00,11,5,17,0.01
2013-3-24,32.0,18.5,6.0,11.0,3.4,-8.0,90,58,19,0.00,40.00,12,4,16,0.01
2013-3-25,39.0,26.8,15.0,12.0,4.7,0.0,54,40,23,0.00,40.00,11,6,19,0.00
2013-3-26,44.0,33.7,26.0,25.0,17.7,12.0,88,56,29,0.00,40.00,12,6,22,0.00
2013-3-27,46.0,34.6,28.0,24.0,17.4,15.0,60,50,34,0.00,40.00,13,7,19,0.00
2013-3-28,47.0,42.1,36.0,31.0,28.7,26.0,78,59,47,0.00,40.00,16,9,24,0.00
2013-3-29,42.0,36.3,33.0,33.0,30.0,28.0,96,78,61,0.00,40.00,10,6,19,0.02
2013-3-30,49.0,38.9,31.0,30.0,22.0,-99.9,88,58,28,0.00,40.00,14,7,26,0.01
2013-3-31,56.0,44.2,33.0,24.0,18.6,9.0,61,39,17,0.00,40.00,12,7,18,0.00